createdAt,value
2023-12-16T00:00:20.116Z,8.99
2023-12-16T00:00:40.742Z,9.06
2023-12-16T00:01:01.526Z,9.04
2023-12-16T00:01:21.909Z,9.02
2023-12-16T00:01:44.920Z,9.1
2023-12-16T00:02:08.462Z,9.16
2023-12-16T00:02:23.613Z,9.17
2023-12-16T00:02:44.092Z,9.07
2023-12-16T00:03:04.654Z,9.03
2023-12-16T00:03:25.283Z,9.07
2023-12-16T00:03:45.937Z,9.03
2023-12-16T00:04:06.419Z,9.06
2023-12-16T00:04:27.039Z,8.99
2023-12-16T00:04:47.590Z,8.99
2023-12-16T00:05:08.102Z,9.08
2023-12-16T00:05:28.732Z,8.99
2023-12-16T00:05:49.311Z,8.93
2023-12-16T00:06:09.862Z,8.89
2023-12-16T00:06:30.414Z,8.9
2023-12-16T00:06:50.993Z,8.9
2023-12-16T00:07:11.610Z,8.97
2023-12-16T00:07:32.089Z,9.02
2023-12-16T00:07:52.675Z,9.01
2023-12-16T00:08:13.286Z,8.87
2023-12-16T00:08:33.822Z,8.86
2023-12-16T00:08:54.391Z,8.97
2023-12-16T00:09:14.964Z,8.95
2023-12-16T00:09:35.590Z,8.99
2023-12-16T00:09:56.151Z,8.9
2023-12-16T00:10:16.711Z,8.94
2023-12-16T00:10:37.185Z,8.97
2023-12-16T00:10:57.824Z,8.99
2023-12-16T00:11:18.430Z,8.97
2023-12-16T00:11:38.894Z,8.94
2023-12-16T00:11:59.558Z,8.91
2023-12-16T00:12:20.112Z,8.91
2023-12-16T00:12:40.689Z,8.94
2023-12-16T00:13:01.321Z,8.98
2023-12-16T00:13:21.887Z,8.87
2023-12-16T00:13:42.406Z,8.83
2023-12-16T00:14:02.988Z,8.77
2023-12-16T00:14:23.540Z,8.8
2023-12-16T00:14:44.157Z,8.79
2023-12-16T00:15:04.717Z,8.78
2023-12-16T00:15:25.290Z,8.82
2023-12-16T00:15:45.885Z,8.88
2023-12-16T00:16:06.447Z,8.94
2023-12-16T00:16:27.202Z,8.93
2023-12-16T00:16:47.578Z,8.93
2023-12-16T00:17:08.142Z,8.97
2023-12-16T00:17:28.757Z,8.99
2023-12-16T00:17:49.286Z,9
2023-12-16T00:18:09.871Z,9.03
2023-12-16T00:18:30.698Z,8.97
2023-12-16T00:18:51.215Z,8.98
2023-12-16T00:19:11.719Z,8.96
2023-12-16T00:19:32.226Z,9.01
2023-12-16T00:19:52.785Z,9.05
2023-12-16T00:20:13.318Z,9.06
2023-12-16T00:20:33.842Z,9.07
2023-12-16T00:20:54.427Z,9.11
2023-12-16T00:21:15.040Z,8.97
2023-12-16T00:21:35.593Z,9.02
2023-12-16T00:21:56.146Z,9.02
2023-12-16T00:22:16.737Z,9.04
2023-12-16T00:22:37.307Z,9.11
2023-12-16T00:22:57.853Z,9.09
2023-12-16T00:23:18.433Z,9.04
2023-12-16T00:23:39.012Z,9.09
2023-12-16T00:23:59.590Z,9.13
2023-12-16T00:24:20.160Z,9.18
2023-12-16T00:24:41.011Z,9.2
2023-12-16T00:25:01.383Z,9.2
2023-12-16T00:25:21.990Z,9.2
2023-12-16T00:25:42.434Z,9.12
2023-12-16T00:26:03.080Z,9.16
2023-12-16T00:26:23.624Z,9.07
2023-12-16T00:26:44.161Z,9.04
2023-12-16T00:27:04.724Z,9.02
2023-12-16T00:27:25.294Z,9.08
2023-12-16T00:27:45.927Z,9.07
2023-12-16T00:28:06.549Z,9.09
2023-12-16T00:28:27.122Z,9.16
2023-12-16T00:28:47.594Z,9.23
2023-12-16T00:29:08.155Z,9.23
2023-12-16T00:29:28.718Z,9.23
2023-12-16T00:29:49.302Z,9.19
2023-12-16T00:30:10.088Z,9.18
2023-12-16T00:30:30.490Z,9.24
2023-12-16T00:30:51.115Z,9.27
2023-12-16T00:31:11.692Z,9.31
2023-12-16T00:31:32.225Z,9.22
2023-12-16T00:31:52.790Z,9.14
2023-12-16T00:32:13.307Z,9.06
2023-12-16T00:32:33.921Z,9.02
2023-12-16T00:32:54.520Z,8.99
2023-12-16T00:33:15.155Z,9.04
2023-12-16T00:33:35.643Z,9.08
2023-12-16T00:33:56.245Z,9.06
2023-12-16T00:34:16.961Z,9.05
2023-12-16T00:34:37.348Z,9.12
2023-12-16T00:34:57.889Z,9.11
2023-12-16T00:35:18.445Z,9.13
2023-12-16T00:35:39.030Z,9.15
2023-12-16T00:35:59.635Z,9.14
2023-12-16T00:36:20.195Z,9.12
2023-12-16T00:36:40.782Z,9.16
2023-12-16T00:37:01.297Z,9.05
2023-12-16T00:37:22.019Z,8.87
2023-12-16T00:37:42.811Z,8.86
2023-12-16T00:38:03.059Z,8.8
2023-12-16T00:38:23.637Z,8.87
2023-12-16T00:38:44.172Z,8.94
2023-12-16T00:39:04.776Z,8.89
2023-12-16T00:39:25.320Z,8.96
2023-12-16T00:39:45.963Z,8.93
2023-12-16T00:40:06.504Z,9.02
2023-12-16T00:40:27.105Z,8.98
2023-12-16T00:40:47.703Z,9.03
2023-12-16T00:41:08.275Z,9.04
2023-12-16T00:41:28.769Z,9.07
2023-12-16T00:41:49.383Z,9.11
2023-12-16T00:42:26.412Z,9.16
2023-12-16T00:42:46.992Z,9.14
2023-12-16T00:43:07.672Z,9.17
2023-12-16T00:43:28.149Z,9.11
2023-12-16T00:43:48.673Z,9.11
2023-12-16T00:44:09.252Z,9.08
2023-12-16T00:44:29.831Z,9.15
2023-12-16T00:44:50.411Z,9.17
2023-12-16T00:45:11.098Z,9.15
2023-12-16T00:45:31.552Z,9.2
2023-12-16T00:45:52.085Z,9.24
2023-12-16T00:46:12.732Z,9.19
2023-12-16T00:46:33.294Z,9.1
2023-12-16T00:46:53.864Z,9.12
2023-12-16T00:47:14.381Z,9.13
2023-12-16T00:47:35.098Z,9.15
2023-12-16T00:47:55.626Z,9.13
2023-12-16T00:48:16.184Z,9.19
2023-12-16T00:48:36.789Z,9.17
2023-12-16T00:48:57.407Z,9.21
2023-12-16T00:49:18.017Z,9.23
2023-12-16T00:49:38.420Z,9.2
2023-12-16T00:49:59.053Z,9.25
2023-12-16T00:50:19.555Z,9.31
2023-12-16T00:50:40.137Z,9.35
2023-12-16T00:51:00.693Z,9.36
2023-12-16T00:51:21.284Z,9.39
2023-12-16T00:51:41.909Z,9.33
2023-12-16T00:52:02.454Z,9.12
2023-12-16T00:52:23.070Z,9.01
2023-12-16T00:52:43.602Z,8.87
2023-12-16T00:53:04.141Z,8.91
2023-12-16T00:53:24.720Z,8.95
2023-12-16T00:53:45.289Z,9.01
2023-12-16T00:54:05.848Z,9.01
2023-12-16T00:54:26.443Z,8.98
2023-12-16T00:54:47.039Z,9
2023-12-16T00:55:07.721Z,9.03
2023-12-16T00:55:28.191Z,9.08
2023-12-16T00:55:48.727Z,9
2023-12-16T00:56:09.283Z,9.07
2023-12-16T00:56:29.873Z,9.1
2023-12-16T00:56:50.419Z,9.13
2023-12-16T00:57:10.999Z,9.17
2023-12-16T00:57:31.577Z,9.18
2023-12-16T00:57:52.179Z,9.17
2023-12-16T00:58:12.750Z,8.91
2023-12-16T00:58:33.284Z,8.86
2023-12-16T00:58:53.881Z,8.94
2023-12-16T00:59:14.457Z,8.99
2023-12-16T00:59:35.047Z,9.03
2023-12-16T00:59:55.595Z,9.1
2023-12-16T01:00:16.189Z,9
2023-12-16T01:00:36.775Z,8.92
2023-12-16T01:00:57.382Z,8.86
2023-12-16T01:01:17.950Z,8.92
2023-12-16T01:01:38.526Z,9.02
2023-12-16T01:01:59.049Z,9.09
2023-12-16T01:02:19.578Z,9.09
2023-12-16T01:02:40.142Z,9.09
2023-12-16T01:03:00.801Z,9.08
2023-12-16T01:03:21.348Z,9.09
2023-12-16T01:03:42.080Z,9.14
2023-12-16T01:04:02.551Z,9.19
2023-12-16T01:04:23.118Z,9.22
2023-12-16T01:04:43.628Z,9.23
2023-12-16T01:05:04.194Z,9.26
2023-12-16T01:05:24.799Z,9.25
2023-12-16T01:05:45.359Z,9.19
2023-12-16T01:06:05.881Z,9.16
2023-12-16T01:06:26.500Z,9.19
2023-12-16T01:06:47.119Z,9.22
2023-12-16T01:07:07.761Z,9.28
2023-12-16T01:07:28.268Z,9.14
2023-12-16T01:07:48.744Z,9.18
2023-12-16T01:08:09.306Z,9.2
2023-12-16T01:08:29.944Z,9.23
2023-12-16T01:08:50.509Z,9.23
2023-12-16T01:09:11.105Z,9.27
2023-12-16T01:09:31.635Z,9.32
2023-12-16T01:09:52.224Z,9.3
2023-12-16T01:10:12.791Z,9.32
2023-12-16T01:10:33.370Z,9.21
2023-12-16T01:10:53.922Z,9.15
2023-12-16T01:11:14.478Z,9.14
2023-12-16T01:11:35.056Z,9.15
2023-12-16T01:11:55.624Z,9.11
2023-12-16T01:12:16.192Z,9.05
2023-12-16T01:12:36.784Z,9.04
2023-12-16T01:12:57.463Z,9.1
2023-12-16T01:13:17.956Z,9.04
2023-12-16T01:13:38.479Z,9.07
2023-12-16T01:13:59.059Z,9.1
2023-12-16T01:14:19.649Z,8.98
2023-12-16T01:14:40.227Z,8.99
2023-12-16T01:15:00.792Z,9.08
2023-12-16T01:15:21.336Z,9.15
2023-12-16T01:15:42.039Z,9.08
2023-12-16T01:16:02.542Z,9.05
2023-12-16T01:16:23.167Z,9.1
2023-12-16T01:16:43.667Z,9.08
2023-12-16T01:17:04.205Z,8.96
2023-12-16T01:17:24.779Z,8.99
2023-12-16T01:17:45.432Z,9.01
2023-12-16T01:18:06.031Z,8.9
2023-12-16T01:18:26.565Z,8.82
2023-12-16T01:18:47.357Z,8.81
2023-12-16T01:19:07.979Z,8.84
2023-12-16T01:19:28.415Z,8.91
2023-12-16T01:19:48.810Z,8.87
2023-12-16T01:20:09.382Z,8.94
2023-12-16T01:20:29.918Z,8.94
2023-12-16T01:20:50.511Z,9.01
2023-12-16T01:21:11.082Z,9.09
2023-12-16T01:21:31.647Z,9.09
2023-12-16T01:21:52.317Z,9.15
2023-12-16T01:22:12.804Z,9.18
2023-12-16T01:22:33.385Z,9.21
2023-12-16T01:22:53.948Z,9.27
2023-12-16T01:23:14.526Z,9.3
2023-12-16T01:23:35.096Z,9.33
2023-12-16T01:24:16.240Z,9.33
2023-12-16T01:24:36.799Z,9.21
2023-12-16T01:24:57.510Z,9.16
2023-12-16T01:25:17.989Z,9.19
2023-12-16T01:25:38.532Z,9.17
2023-12-16T01:25:59.118Z,8.97
2023-12-16T01:26:19.657Z,9
2023-12-16T01:26:40.155Z,9.08
2023-12-16T01:27:00.858Z,9.1
2023-12-16T01:27:21.386Z,9.11
2023-12-16T01:27:41.975Z,9.18
2023-12-16T01:28:02.572Z,9.23
2023-12-16T01:28:23.128Z,9.26
2023-12-16T01:28:43.666Z,9.22
2023-12-16T01:29:04.279Z,9.13
2023-12-16T01:29:24.820Z,9.14
2023-12-16T01:29:45.387Z,9.08
2023-12-16T01:30:06.014Z,9.06
2023-12-16T01:30:26.640Z,9.03
2023-12-16T01:30:47.129Z,9.07
2023-12-16T01:31:07.812Z,9.04
2023-12-16T01:31:28.262Z,9.05
2023-12-16T01:31:48.840Z,9.09
2023-12-16T01:32:29.996Z,8.99
2023-12-16T01:32:50.600Z,9.11
2023-12-16T01:33:11.262Z,9.07
2023-12-16T01:33:31.708Z,9.06
2023-12-16T01:33:52.330Z,9.06
2023-12-16T01:34:12.886Z,9.16
2023-12-16T01:34:33.451Z,9.1
2023-12-16T01:34:53.979Z,9.13
2023-12-16T01:35:14.565Z,9.17
2023-12-16T01:35:35.140Z,9.16
2023-12-16T01:35:55.693Z,9.23
2023-12-16T01:36:16.301Z,9.27
2023-12-16T01:36:36.760Z,9.12
2023-12-16T01:36:57.521Z,9.07
2023-12-16T01:37:18.139Z,9.17
2023-12-16T01:37:38.886Z,9.22
2023-12-16T01:37:59.141Z,9.29
2023-12-16T01:38:19.698Z,9.29
2023-12-16T01:38:40.276Z,9.29
2023-12-16T01:39:00.852Z,9.22
2023-12-16T01:39:21.439Z,9.19
2023-12-16T01:39:42.005Z,9.08
2023-12-16T01:40:02.660Z,9.19
2023-12-16T01:40:23.207Z,9.24
2023-12-16T01:40:43.922Z,9.22
2023-12-16T01:41:04.330Z,9.3
2023-12-16T01:41:24.889Z,9.28
2023-12-16T01:41:45.454Z,9.23
2023-12-16T01:42:26.561Z,9.2
2023-12-16T01:42:47.215Z,9.23
2023-12-16T01:43:07.819Z,9.28
2023-12-16T01:43:28.301Z,9.32
2023-12-16T01:43:48.864Z,9.31
2023-12-16T01:44:09.425Z,9.23
2023-12-16T01:44:30.037Z,9.23
2023-12-16T01:44:50.569Z,9.14
2023-12-16T01:45:11.145Z,9.2
2023-12-16T01:45:31.715Z,9.28
2023-12-16T01:45:52.358Z,9.29
2023-12-16T01:46:12.918Z,9.29
2023-12-16T01:46:33.530Z,9.28
2023-12-16T01:46:54.100Z,9.17
2023-12-16T01:47:14.579Z,9.17
2023-12-16T01:47:35.175Z,9.26
2023-12-16T01:47:55.795Z,9.32
2023-12-16T01:48:16.373Z,9.34
2023-12-16T01:48:37.000Z,9.36
2023-12-16T01:48:57.553Z,9.32
2023-12-16T01:49:18.094Z,9.27
2023-12-16T01:49:38.619Z,9.28
2023-12-16T01:49:59.221Z,9.23
2023-12-16T01:50:19.738Z,9.21
2023-12-16T01:50:40.316Z,9.28
2023-12-16T01:51:17.351Z,9.2
2023-12-16T01:51:37.965Z,9.24
2023-12-16T01:52:19.166Z,9.12
2023-12-16T01:52:39.641Z,9.13
2023-12-16T01:53:00.304Z,9.14
2023-12-16T01:53:20.780Z,9.22
2023-12-16T01:53:41.396Z,9.28
2023-12-16T01:54:02.174Z,9.25
2023-12-16T01:54:22.490Z,9.23
2023-12-16T01:54:43.118Z,9.27
2023-12-16T01:55:03.728Z,9.31
2023-12-16T01:55:24.356Z,9.35
2023-12-16T01:55:44.784Z,9.25
2023-12-16T01:56:05.357Z,9.18
2023-12-16T01:56:25.856Z,9.27
2023-12-16T01:56:46.517Z,9.31
2023-12-16T01:57:07.088Z,9.14
2023-12-16T01:57:27.673Z,9.17
2023-12-16T01:57:48.348Z,9.1
2023-12-16T01:58:08.864Z,9.15
2023-12-16T01:58:29.418Z,9.02
2023-12-16T01:58:49.992Z,9.18
2023-12-16T01:59:10.539Z,9.26
2023-12-16T01:59:31.102Z,9.35
2023-12-16T01:59:51.674Z,9.39
2023-12-16T02:00:12.265Z,9.39
2023-12-16T02:00:34.036Z,9.44
2023-12-16T02:00:53.355Z,9.48
2023-12-16T02:01:14.050Z,9.49
2023-12-16T02:01:34.653Z,9.41
2023-12-16T02:01:55.163Z,9.4
2023-12-16T02:02:15.671Z,9.39
2023-12-16T02:02:36.249Z,9.38
2023-12-16T02:02:56.824Z,9.37
2023-12-16T02:03:17.414Z,9.41
2023-12-16T02:03:37.989Z,9.41
2023-12-16T02:03:58.597Z,9.37
2023-12-16T02:04:19.240Z,9.37
2023-12-16T02:04:39.743Z,9.27
2023-12-16T02:05:00.373Z,9.22
2023-12-16T02:05:20.808Z,9.3
2023-12-16T02:05:41.381Z,9.14
2023-12-16T02:06:02.033Z,9.18
2023-12-16T02:06:22.536Z,9.04
2023-12-16T02:06:43.282Z,9.02
2023-12-16T02:07:03.847Z,9
2023-12-16T02:07:24.298Z,9.05
2023-12-16T02:07:44.852Z,9.18
2023-12-16T02:08:05.386Z,9.24
2023-12-16T02:08:25.974Z,9.31
2023-12-16T02:08:46.551Z,9.33
2023-12-16T02:09:07.095Z,9.39
2023-12-16T02:09:27.675Z,9.42
2023-12-16T02:09:48.277Z,9.47
2023-12-16T02:10:08.885Z,9.44
2023-12-16T02:10:29.557Z,9.44
2023-12-16T02:10:49.977Z,9.35
2023-12-16T02:11:10.569Z,9.2
2023-12-16T02:11:31.130Z,9.08
2023-12-16T02:11:51.618Z,9.11
2023-12-16T02:12:12.296Z,9.19
2023-12-16T02:12:32.832Z,9.24
2023-12-16T02:12:53.502Z,9.31
2023-12-16T02:13:14.041Z,9.35
2023-12-16T02:13:35.604Z,9.42
2023-12-16T02:13:55.162Z,9.44
2023-12-16T02:14:15.900Z,9.47
2023-12-16T02:14:36.305Z,9.46
2023-12-16T02:14:56.856Z,9.51
2023-12-16T02:15:17.409Z,9.54
2023-12-16T02:15:38.076Z,9.58
2023-12-16T02:15:58.588Z,9.6
2023-12-16T02:16:19.210Z,9.59
2023-12-16T02:16:39.705Z,9.63
2023-12-16T02:17:00.294Z,9.63
2023-12-16T02:17:20.855Z,9.53
2023-12-16T02:17:41.791Z,9.38
2023-12-16T02:18:02.092Z,9.41
2023-12-16T02:18:22.712Z,9.5
2023-12-16T02:18:43.203Z,9.48
2023-12-16T02:19:03.955Z,9.49
2023-12-16T02:19:24.346Z,9.45
2023-12-16T02:19:44.955Z,9.5
2023-12-16T02:20:05.543Z,9.53
2023-12-16T02:20:26.009Z,9.57
2023-12-16T02:20:46.586Z,9.5
2023-12-16T02:21:07.210Z,9.56
2023-12-16T02:21:27.748Z,9.59
2023-12-16T02:21:48.325Z,9.62
2023-12-16T02:22:08.920Z,9.66
2023-12-16T02:22:29.467Z,9.69
2023-12-16T02:22:49.961Z,9.7
2023-12-16T02:23:10.516Z,9.71
2023-12-16T02:23:31.195Z,9.73
2023-12-16T02:23:51.760Z,9.72
2023-12-16T02:24:12.346Z,9.67
2023-12-16T02:24:32.910Z,9.7
2023-12-16T02:24:53.474Z,9.73
2023-12-16T02:25:14.100Z,9.76
2023-12-16T02:25:34.643Z,9.76
2023-12-16T02:25:55.169Z,9.76
2023-12-16T02:26:15.747Z,9.69
2023-12-16T02:26:36.320Z,9.59
2023-12-16T02:26:56.871Z,9.45
2023-12-16T02:27:17.484Z,9.5
2023-12-16T02:27:38.425Z,9.55
2023-12-16T02:27:58.627Z,9.52
2023-12-16T02:28:19.231Z,9.58
2023-12-16T02:28:39.743Z,9.61
2023-12-16T02:29:00.325Z,9.62
2023-12-16T02:29:20.888Z,9.6
2023-12-16T02:29:41.459Z,9.59
2023-12-16T02:30:02.073Z,9.57
2023-12-16T02:30:22.691Z,9.62
2023-12-16T02:30:43.205Z,9.57
2023-12-16T02:31:03.964Z,9.53
2023-12-16T02:31:24.372Z,9.52
2023-12-16T02:31:44.937Z,9.53
2023-12-16T02:32:05.458Z,9.56
2023-12-16T02:32:26.105Z,9.61
2023-12-16T02:32:46.680Z,9.41
2023-12-16T02:33:07.322Z,9.42
2023-12-16T02:33:27.849Z,9.39
2023-12-16T02:33:48.479Z,9.46
2023-12-16T02:34:08.988Z,9.5
2023-12-16T02:34:29.513Z,9.47
2023-12-16T02:34:50.046Z,9.33
2023-12-16T02:35:10.665Z,9.31
2023-12-16T02:35:31.239Z,9.42
2023-12-16T02:35:51.773Z,9.39
2023-12-16T02:36:12.375Z,9.46
2023-12-16T02:36:32.908Z,9.52
2023-12-16T02:36:53.505Z,9.44
2023-12-16T02:37:14.147Z,9.4
2023-12-16T02:37:34.627Z,9.35
2023-12-16T02:37:55.204Z,9.41
2023-12-16T02:38:15.799Z,9.46
2023-12-16T02:38:36.338Z,9.51
2023-12-16T02:38:56.905Z,9.56
2023-12-16T02:39:17.490Z,9.6
2023-12-16T02:39:38.060Z,9.61
2023-12-16T02:39:58.718Z,9.63
2023-12-16T02:40:19.258Z,9.68
2023-12-16T02:40:39.762Z,9.66
2023-12-16T02:41:00.403Z,9.52
2023-12-16T02:41:20.927Z,9.51
2023-12-16T02:41:41.498Z,9.51
2023-12-16T02:42:02.081Z,9.47
2023-12-16T02:42:22.668Z,9.52
2023-12-16T02:42:43.127Z,9.48
2023-12-16T02:43:03.825Z,9.35
2023-12-16T02:43:24.408Z,9.31
2023-12-16T02:43:44.969Z,9.38
2023-12-16T02:44:05.517Z,9.44
2023-12-16T02:44:26.077Z,9.48
2023-12-16T02:44:46.651Z,9.51
2023-12-16T02:45:07.233Z,9.48
2023-12-16T02:45:27.783Z,9.44
2023-12-16T02:45:48.367Z,9.46
2023-12-16T02:46:09.024Z,9.52
2023-12-16T02:46:29.598Z,9.58
2023-12-16T02:46:50.071Z,9.54
2023-12-16T02:47:10.670Z,9.51
2023-12-16T02:47:31.295Z,9.41
2023-12-16T02:47:51.842Z,9.47
2023-12-16T02:48:12.435Z,9.44
2023-12-16T02:48:32.972Z,9.51
2023-12-16T02:48:53.620Z,9.46
2023-12-16T02:49:14.220Z,9.47
2023-12-16T02:49:34.767Z,9.39
2023-12-16T02:49:55.322Z,9.36
2023-12-16T02:50:15.806Z,9.28
2023-12-16T02:50:36.377Z,9.32
2023-12-16T02:50:56.962Z,9.4
2023-12-16T02:51:17.518Z,9.46
2023-12-16T02:51:38.099Z,9.53
2023-12-16T02:51:58.671Z,9.56
2023-12-16T02:52:19.313Z,9.59
2023-12-16T02:52:39.806Z,9.63
2023-12-16T02:53:00.467Z,9.47
2023-12-16T02:53:20.965Z,9.42
2023-12-16T02:53:41.526Z,9.4
2023-12-16T02:54:02.119Z,9.42
2023-12-16T02:54:22.681Z,9.44
2023-12-16T02:54:43.292Z,9.49
2023-12-16T02:55:03.878Z,9.51
2023-12-16T02:55:24.634Z,9.54
2023-12-16T02:55:44.968Z,9.57
2023-12-16T02:56:05.559Z,9.53
2023-12-16T02:56:26.114Z,9.57
2023-12-16T02:56:46.699Z,9.58
2023-12-16T02:57:07.254Z,9.6
2023-12-16T02:57:27.814Z,9.65
2023-12-16T02:57:48.446Z,9.68
2023-12-16T02:58:09.030Z,9.71
2023-12-16T02:58:29.558Z,9.73
2023-12-16T02:58:50.156Z,9.75
2023-12-16T02:59:10.753Z,9.75
2023-12-16T02:59:31.319Z,9.76
2023-12-16T03:00:08.313Z,9.76
2023-12-16T03:00:28.884Z,9.77
2023-12-16T03:00:49.561Z,9.69
2023-12-16T03:01:10.147Z,9.74
2023-12-16T03:01:30.740Z,9.7
2023-12-16T03:01:51.224Z,9.51
2023-12-16T03:02:11.746Z,9.41
2023-12-16T03:02:32.244Z,9.41
2023-12-16T03:02:52.920Z,9.45
2023-12-16T03:03:13.512Z,9.48
2023-12-16T03:03:34.082Z,9.52
2023-12-16T03:03:54.628Z,9.46
2023-12-16T03:04:15.223Z,9.5
2023-12-16T03:04:35.745Z,9.49
2023-12-16T03:04:56.376Z,9.55
2023-12-16T03:05:16.908Z,9.52
2023-12-16T03:05:37.516Z,9.56
2023-12-16T03:05:58.047Z,9.56
2023-12-16T03:06:18.653Z,9.55
2023-12-16T03:06:39.186Z,9.56
2023-12-16T03:06:59.833Z,9.56
2023-12-16T03:07:20.369Z,9.46
2023-12-16T03:07:41.073Z,9.31
2023-12-16T03:08:01.475Z,9.36
2023-12-16T03:08:22.051Z,9.39
2023-12-16T03:08:42.650Z,9.39
2023-12-16T03:09:03.243Z,9.44
2023-12-16T03:09:23.755Z,9.42
2023-12-16T03:09:44.391Z,9.3
2023-12-16T03:10:04.901Z,9.32
2023-12-16T03:10:25.605Z,9.42
2023-12-16T03:10:46.049Z,9.41
2023-12-16T03:11:06.623Z,9.41
2023-12-16T03:11:27.174Z,9.28
2023-12-16T03:11:47.804Z,9.25
2023-12-16T03:12:08.370Z,9.26
2023-12-16T03:12:28.933Z,9.27
2023-12-16T03:12:49.510Z,9.31
2023-12-16T03:13:10.093Z,9.41
2023-12-16T03:13:30.631Z,9.39
2023-12-16T03:13:51.215Z,9.32
2023-12-16T03:14:11.814Z,9.25
2023-12-16T03:14:32.474Z,9.34
2023-12-16T03:14:52.939Z,9.42
2023-12-16T03:15:13.496Z,9.37
2023-12-16T03:15:34.075Z,9.38
2023-12-16T03:15:54.652Z,9.39
2023-12-16T03:16:15.245Z,9.42
2023-12-16T03:16:35.818Z,9.24
2023-12-16T03:16:56.389Z,9.15
2023-12-16T03:17:17.023Z,9.23
2023-12-16T03:17:37.976Z,9.27
2023-12-16T03:17:58.114Z,9.23
2023-12-16T03:18:18.704Z,9.24
2023-12-16T03:18:39.254Z,9.34
2023-12-16T03:18:59.854Z,9.41
2023-12-16T03:19:20.449Z,9.39
2023-12-16T03:19:41.304Z,9.43
2023-12-16T03:20:01.614Z,9.34
2023-12-16T03:20:22.070Z,9.4
2023-12-16T03:20:42.660Z,9.44
2023-12-16T03:21:03.224Z,9.43
2023-12-16T03:21:23.786Z,9.38
2023-12-16T03:21:44.399Z,9.42
2023-12-16T03:22:05.020Z,9.4
2023-12-16T03:22:25.637Z,9.45
2023-12-16T03:22:46.108Z,9.51
2023-12-16T03:23:06.681Z,9.53
2023-12-16T03:23:27.257Z,9.51
2023-12-16T03:23:47.831Z,9.54
2023-12-16T03:24:08.400Z,9.48
2023-12-16T03:24:28.979Z,9.51
2023-12-16T03:24:49.539Z,9.55
2023-12-16T03:25:10.240Z,9.56
2023-12-16T03:25:30.713Z,9.56
2023-12-16T03:25:51.332Z,9.58
2023-12-16T03:26:11.861Z,9.6
2023-12-16T03:26:32.392Z,9.52
2023-12-16T03:26:52.970Z,9.38
2023-12-16T03:27:13.540Z,9.43
2023-12-16T03:27:34.102Z,9.4
2023-12-16T03:27:54.731Z,9.45
2023-12-16T03:28:15.314Z,9.48
2023-12-16T03:28:35.831Z,9.53
2023-12-16T03:28:56.437Z,9.54
2023-12-16T03:29:16.961Z,9.58
2023-12-16T03:29:37.582Z,9.51
2023-12-16T03:29:58.125Z,9.56
2023-12-16T03:30:18.731Z,9.59
2023-12-16T03:30:39.277Z,9.56
2023-12-16T03:30:59.894Z,9.57
2023-12-16T03:31:20.399Z,9.63
2023-12-16T03:31:41.002Z,9.59
2023-12-16T03:32:01.557Z,9.62
2023-12-16T03:32:22.147Z,9.62
2023-12-16T03:32:42.753Z,9.64
2023-12-16T03:33:03.448Z,9.63
2023-12-16T03:33:23.864Z,9.64
2023-12-16T03:33:44.577Z,9.61
2023-12-16T03:34:05.024Z,9.6
2023-12-16T03:34:25.596Z,9.51
2023-12-16T03:34:46.189Z,9.59
2023-12-16T03:35:06.698Z,9.61
2023-12-16T03:35:27.278Z,9.63
2023-12-16T03:35:47.841Z,9.66
2023-12-16T03:36:08.445Z,9.66
2023-12-16T03:36:28.999Z,9.67
2023-12-16T03:36:49.651Z,9.57
2023-12-16T03:37:10.232Z,9.44
2023-12-16T03:37:30.770Z,9.4
2023-12-16T03:37:51.263Z,9.45
2023-12-16T03:38:11.857Z,9.49
2023-12-16T03:38:32.450Z,9.53
2023-12-16T03:38:52.911Z,9.57
2023-12-16T03:39:13.571Z,9.44
2023-12-16T03:39:34.130Z,9.36
2023-12-16T03:39:54.746Z,9.38
2023-12-16T03:40:15.424Z,9.43
2023-12-16T03:40:35.987Z,9.48
2023-12-16T03:40:56.486Z,9.5
2023-12-16T03:41:17.021Z,9.51
2023-12-16T03:41:37.628Z,9.35
2023-12-16T03:41:58.152Z,9.39
2023-12-16T03:42:18.725Z,9.45
2023-12-16T03:42:39.335Z,9.52
2023-12-16T03:43:00.143Z,9.55
2023-12-16T03:43:20.471Z,9.56
2023-12-16T03:43:41.006Z,9.59
2023-12-16T03:44:01.596Z,9.61
2023-12-16T03:44:22.165Z,9.59
2023-12-16T03:44:42.751Z,9.57
2023-12-16T03:45:03.303Z,9.5
2023-12-16T03:45:23.899Z,9.48
2023-12-16T03:45:44.465Z,9.44
2023-12-16T03:46:05.090Z,9.52
2023-12-16T03:46:25.685Z,9.55
2023-12-16T03:46:46.185Z,9.58
2023-12-16T03:47:06.752Z,9.59
2023-12-16T03:47:27.304Z,9.63
2023-12-16T03:47:47.889Z,9.64
2023-12-16T03:48:08.576Z,9.69
2023-12-16T03:48:29.133Z,9.65
2023-12-16T03:48:49.687Z,9.67
2023-12-16T03:49:10.284Z,9.69
2023-12-16T03:49:30.793Z,9.66
2023-12-16T03:49:51.370Z,9.69
2023-12-16T03:50:11.929Z,9.7
2023-12-16T03:50:32.450Z,9.71
2023-12-16T03:50:53.031Z,9.71
2023-12-16T03:51:13.612Z,9.69
2023-12-16T03:51:34.185Z,9.69
2023-12-16T03:51:54.755Z,9.64
2023-12-16T03:52:15.396Z,9.62
2023-12-16T03:52:35.889Z,9.53
2023-12-16T03:52:56.486Z,9.51
2023-12-16T03:53:17.055Z,9.54
2023-12-16T03:53:37.631Z,9.59
2023-12-16T03:53:58.166Z,9.62
2023-12-16T03:54:18.668Z,9.65
2023-12-16T03:54:39.351Z,9.67
2023-12-16T03:54:59.969Z,9.7
2023-12-16T03:55:20.515Z,9.73
2023-12-16T03:55:41.055Z,9.75
2023-12-16T03:56:01.668Z,9.77
2023-12-16T03:56:22.207Z,9.78
2023-12-16T03:56:42.773Z,9.8
2023-12-16T03:57:03.378Z,9.8
2023-12-16T03:57:23.901Z,9.79
2023-12-16T03:57:44.504Z,9.82
2023-12-16T03:58:05.077Z,9.83
2023-12-16T03:58:25.721Z,9.84
2023-12-16T03:58:46.197Z,9.84
2023-12-16T03:59:06.806Z,9.85
2023-12-16T03:59:27.371Z,9.83
2023-12-16T03:59:47.988Z,9.85
2023-12-16T04:00:08.564Z,9.84
2023-12-16T04:00:29.086Z,9.78
2023-12-16T04:00:49.807Z,9.59
2023-12-16T04:01:10.270Z,9.65
2023-12-16T04:01:30.925Z,9.58
2023-12-16T04:01:51.426Z,9.54
2023-12-16T04:02:11.924Z,9.61
2023-12-16T04:02:32.550Z,9.61
2023-12-16T04:02:53.112Z,9.52
2023-12-16T04:03:13.705Z,9.51
2023-12-16T04:03:34.224Z,9.44
2023-12-16T04:03:54.803Z,9.44
2023-12-16T04:04:15.385Z,9.51
2023-12-16T04:04:35.940Z,9.54
2023-12-16T04:04:56.491Z,9.58
2023-12-16T04:05:17.081Z,9.6
2023-12-16T04:05:37.695Z,9.6
2023-12-16T04:05:58.258Z,9.57
2023-12-16T04:06:18.786Z,9.53
2023-12-16T04:06:39.362Z,9.56
2023-12-16T04:06:59.914Z,9.58
2023-12-16T04:07:20.528Z,9.53
2023-12-16T04:07:41.294Z,9.55
2023-12-16T04:08:01.668Z,9.59
2023-12-16T04:08:22.243Z,9.64
2023-12-16T04:08:59.271Z,9.56
2023-12-16T04:09:19.852Z,9.61
2023-12-16T04:09:40.402Z,9.63
2023-12-16T04:10:01.101Z,9.65
2023-12-16T04:10:21.644Z,9.65
2023-12-16T04:10:42.172Z,9.64
2023-12-16T04:11:02.743Z,9.64
2023-12-16T04:11:23.306Z,9.65
2023-12-16T04:11:43.982Z,9.66
2023-12-16T04:12:04.441Z,9.69
2023-12-16T04:12:24.991Z,9.74
2023-12-16T04:12:45.635Z,9.76
2023-12-16T04:13:06.194Z,9.71
2023-12-16T04:13:26.799Z,9.62
2023-12-16T04:13:47.291Z,9.59
2023-12-16T04:14:07.879Z,9.54
2023-12-16T04:14:28.423Z,9.6
2023-12-16T04:14:49.023Z,9.64
2023-12-16T04:15:09.615Z,9.67
2023-12-16T04:15:30.171Z,9.58
2023-12-16T04:15:50.776Z,9.6
2023-12-16T04:16:11.308Z,9.59
2023-12-16T04:16:31.913Z,9.57
2023-12-16T04:16:52.420Z,9.56
2023-12-16T04:17:13.006Z,9.56
2023-12-16T04:17:33.733Z,9.52
2023-12-16T04:17:54.336Z,9.55
2023-12-16T04:18:14.796Z,9.5
2023-12-16T04:18:35.404Z,9.52
2023-12-16T04:18:56.007Z,9.4
2023-12-16T04:19:16.645Z,9.47
2023-12-16T04:19:37.032Z,9.48
2023-12-16T04:19:57.618Z,9.56
2023-12-16T04:20:18.190Z,9.62
2023-12-16T04:20:38.759Z,9.63
2023-12-16T04:20:59.362Z,9.51
2023-12-16T04:21:19.880Z,9.56
2023-12-16T04:21:40.468Z,9.61
2023-12-16T04:22:01.109Z,9.58
2023-12-16T04:22:21.659Z,9.51
2023-12-16T04:22:42.173Z,9.53
2023-12-16T04:23:02.781Z,9.54
2023-12-16T04:23:23.311Z,9.49
2023-12-16T04:23:43.873Z,9.34
2023-12-16T04:24:04.387Z,9.18
2023-12-16T04:24:25.041Z,9.22
2023-12-16T04:24:45.702Z,9.27
2023-12-16T04:25:26.939Z,9.4
2023-12-16T04:25:47.334Z,9.41
2023-12-16T04:26:08.758Z,9.4
2023-12-16T04:26:28.489Z,9.45
2023-12-16T04:26:49.041Z,9.51
2023-12-16T04:27:09.597Z,9.43
2023-12-16T04:27:30.205Z,9.36
2023-12-16T04:27:50.829Z,9.41
2023-12-16T04:28:11.349Z,9.5
2023-12-16T04:28:31.904Z,9.56
2023-12-16T04:28:52.462Z,9.6
2023-12-16T04:29:13.077Z,9.53
2023-12-16T04:29:33.622Z,9.45
2023-12-16T04:29:54.203Z,9.48
2023-12-16T04:30:14.800Z,9.47
2023-12-16T04:30:35.423Z,9.48
2023-12-16T04:30:56.087Z,9.52
2023-12-16T04:31:16.501Z,9.45
2023-12-16T04:31:37.126Z,9.42
2023-12-16T04:31:57.575Z,9.37
2023-12-16T04:32:18.191Z,9.35
2023-12-16T04:32:38.785Z,9.32
2023-12-16T04:32:59.349Z,9.42
2023-12-16T04:33:20.001Z,9.44
2023-12-16T04:33:40.628Z,9.49
2023-12-16T04:34:01.201Z,9.54
2023-12-16T04:34:21.748Z,9.55
2023-12-16T04:34:42.252Z,9.6
2023-12-16T04:35:02.779Z,9.64
2023-12-16T04:35:23.378Z,9.65
2023-12-16T04:35:43.921Z,9.41
2023-12-16T04:36:04.533Z,9.4
2023-12-16T04:36:25.054Z,9.41
2023-12-16T04:36:45.662Z,9.49
2023-12-16T04:37:06.224Z,9.56
2023-12-16T04:37:26.868Z,9.57
2023-12-16T04:37:47.361Z,9.53